Time;durP1;ratioP1;P1;durP2;ratioP2;P2;SDS_P1;SDS_P2;PMS_P1;PMS_P2;Temp;Humidity;BMP_temperature;BMP_pressure;BME280_temperature;BME280_humidity;BME280_pressure;Samples;Min_cycle;Max_cycle;Signal;HPM_P1;HPM_P2
2021/10/09 00:00:44;;;;;;;32.37;21.37;;;;;;;6.26;93.45;96427.84;5039285;28;20193;-78
2021/10/09 00:03:10;;;;;;;32.37;20.63;;;;;;;6.17;93.65;96429.25;5038885;28;20188;-80
2021/10/09 00:05:35;;;;;;;33.67;20.67;;;;;;;6.17;93.53;96425.84;5038445;28;20177;-79
2021/10/09 00:08:01;;;;;;;29.33;19.20;;;;;;;6.14;93.36;96431.22;5072416;28;20239;-81
2021/10/09 00:10:28;;;;;;;27.70;19.87;;;;;;;6.06;93.71;96434.28;5055261;28;20234;-79
2021/10/09 00:12:54;;;;;;;30.47;19.47;;;;;;;6.06;93.72;96438.63;5073494;28;20205;-79
2021/10/09 00:15:20;;;;;;;31.30;19.10;;;;;;;6.04;93.52;96432.75;5037951;28;20239;-79
2021/10/09 00:17:46;;;;;;;28.80;19.00;;;;;;;6.05;93.50;96430.06;5038353;28;20193;-80
2021/10/09 00:20:11;;;;;;;30.73;20.37;;;;;;;6.08;93.64;96427.28;5038670;28;20264;-79
2021/10/09 00:22:36;;;;;;;30.77;19.90;;;;;;;6.09;93.08;96428.94;5055408;28;20184;-79
2021/10/09 00:25:03;;;;;;;26.63;18.63;;;;;;;6.04;93.48;96431.00;5037626;28;20184;-79
2021/10/09 00:27:29;;;;;;;27.73;18.93;;;;;;;6.05;93.57;96431.81;5038397;28;20692;-78
2021/10/09 00:29:54;;;;;;;28.60;19.30;;;;;;;5.97;93.63;96429.72;5054957;28;20209;-79
2021/10/09 00:32:19;;;;;;;30.70;20.57;;;;;;;5.98;93.79;96433.97;5038322;28;20656;-78
2021/10/09 00:34:44;;;;;;;30.20;20.77;;;;;;;5.96;94.18;96435.81;5031077;28;20669;-80
2021/10/09 00:37:10;;;;;;;30.60;20.13;;;;;;;6.00;93.80;96426.94;5034412;28;20206;-79
2021/10/09 00:39:35;;;;;;;27.37;18.87;;;;;;;6.01;93.31;96422.59;5018751;28;20177;-80
2021/10/09 00:42:00;;;;;;;28.00;19.97;;;;;;;5.99;93.42;96425.28;5032312;28;20255;-79
2021/10/09 00:44:26;;;;;;;27.97;20.07;;;;;;;5.91;93.43;96427.53;5034451;28;20239;-79
2021/10/09 00:46:51;;;;;;;26.83;19.87;;;;;;;5.89;93.37;96419.88;5051150;28;20193;-80
2021/10/09 00:49:17;;;;;;;30.67;20.97;;;;;;;5.90;93.78;96423.28;5051429;28;20178;-80
2021/10/09 00:51:47;;;;;;;31.37;20.20;;;;;;;5.92;93.34;96424.06;5046043;28;20568;-77
2021/10/09 00:54:13;;;;;;;32.13;21.83;;;;;;;5.97;93.55;96415.09;5036527;28;20193;-77
2021/10/09 00:56:40;;;;;;;32.40;21.53;;;;;;;5.94;93.78;96422.19;5035443;28;20178;-79
2021/10/09 00:59:07;;;;;;;29.40;19.83;;;;;;;5.95;93.59;96422.09;5034708;28;20253;-80
2021/10/09 01:01:32;;;;;;;29.27;20.10;;;;;;;5.99;93.72;96416.72;5018176;28;20189;-78
2021/10/09 01:03:59;;;;;;;31.23;20.40;;;;;;;5.94;93.46;96417.88;5017463;28;20182;-80
2021/10/09 01:06:24;;;;;;;28.27;19.23;;;;;;;6.00;93.16;96413.22;5034341;28;20189;-80
2021/10/09 01:08:49;;;;;;;28.37;20.43;;;;;;;6.10;93.08;96412.56;5016670;28;20565;-80
2021/10/09 01:11:14;;;;;;;29.77;19.43;;;;;;;6.15;93.16;96409.66;5034637;28;20181;-80
2021/10/09 01:13:40;;;;;;;31.07;20.23;;;;;;;6.11;93.11;96410.81;5017513;28;20205;-79
2021/10/09 01:16:26;;;;;;;30.43;20.37;;;;;;;6.11;93.04;96413.38;5034229;28;20198;-79
2021/10/09 01:18:53;;;;;;;31.90;20.63;;;;;;;6.03;93.13;96413.03;5017741;28;20193;-81
2021/10/09 01:21:19;;;;;;;26.43;20.00;;;;;;;6.04;92.85;96419.84;5034261;28;20182;-80
2021/10/09 01:23:45;;;;;;;32.00;20.43;;;;;;;6.00;93.17;96414.06;5016862;28;20182;-80
2021/10/09 01:26:11;;;;;;;30.97;21.17;;;;;;;5.99;93.81;96411.56;5050904;28;20518;-80
2021/10/09 01:28:37;;;;;;;29.43;20.80;;;;;;;6.09;93.20;96407.47;5033969;28;20280;-79
2021/10/09 01:31:03;;;;;;;30.03;20.63;;;;;;;6.03;92.65;96402.72;5050988;28;20184;-80
2021/10/09 01:33:28;;;;;;;33.23;21.90;;;;;;;5.94;92.93;96410.13;5034056;28;20177;-78
2021/10/09 01:35:55;;;;;;;32.03;19.93;;;;;;;5.97;92.93;96403.94;5017569;28;20303;-78
2021/10/09 01:38:22;;;;;;;31.37;20.23;;;;;;;5.90;93.00;96408.66;5050635;28;20288;-79
2021/10/09 01:40:48;;;;;;;31.13;20.40;;;;;;;5.94;93.46;96414.47;5049975;28;20178;-78
2021/10/09 01:43:15;;;;;;;32.77;21.63;;;;;;;5.88;92.87;96409.66;5034109;28;20568;-79
2021/10/09 01:45:41;;;;;;;32.13;20.13;;;;;;;5.93;92.92;96408.47;5033513;28;20166;-79
2021/10/09 01:48:06;;;;;;;29.00;19.57;;;;;;;5.83;92.94;96407.38;5034070;28;20300;-79
2021/10/09 01:50:31;;;;;;;32.10;19.77;;;;;;;5.76;93.18;96411.28;5054506;28;20188;-80
2021/10/09 01:52:57;;;;;;;26.70;20.10;;;;;;;5.76;93.28;96411.28;5037992;28;20189;-80
2021/10/09 01:55:22;;;;;;;27.60;19.80;;;;;;;5.70;93.29;96409.06;5020393;28;20201;-77
2021/10/09 01:57:47;;;;;;;28.47;19.17;;;;;;;5.66;93.15;96407.63;5021301;28;20285;-79
2021/10/09 02:00:13;;;;;;;26.57;19.60;;;;;;;5.78;93.08;96409.41;5055726;28;20183;-79
2021/10/09 02:02:38;;;;;;;27.93;20.43;;;;;;;5.76;92.89;96408.69;5037451;28;20274;-79
2021/10/09 02:05:04;;;;;;;31.53;19.13;;;;;;;5.83;92.47;96402.22;5020636;28;20178;-78
2021/10/09 02:07:30;;;;;;;31.17;19.53;;;;;;;5.89;91.91;96398.41;5021248;28;20296;-78
2021/10/09 02:09:56;;;;;;;33.03;20.10;;;;;;;5.78;92.45;96393.13;5021044;28;20178;-79
2021/10/09 02:12:23;;;;;;;28.70;18.57;;;;;;;5.90;92.18;96390.63;5037648;28;20196;-79
2021/10/09 02:15:07;;;;;;;29.33;19.87;;;;;;;5.87;91.74;96393.38;5037289;28;20220;-80
2021/10/09 02:25:37;;;;;;;28.03;18.40;;;;;;;5.96;91.34;96389.41;5054869;28;20189;-78
2021/10/09 02:28:03;;;;;;;25.70;18.87;;;;;;;5.92;91.81;96390.53;5038962;28;20216;-76
2021/10/09 02:30:28;;;;;;;27.20;19.43;;;;;;;5.87;91.84;96384.81;5053716;28;20199;-79
2021/10/09 02:32:53;;;;;;;28.97;19.47;;;;;;;5.83;92.01;96386.78;5020157;28;20649;-79
2021/10/09 02:35:19;;;;;;;31.03;20.03;;;;;;;5.76;92.31;96387.25;5036162;28;20212;-78
2021/10/09 02:37:44;;;;;;;27.27;20.20;;;;;;;5.76;92.49;96388.06;5038002;28;20206;-79
2021/10/09 02:40:10;;;;;;;29.73;20.57;;;;;;;5.72;92.23;96386.59;5033154;28;20249;-79
2021/10/09 02:42:36;;;;;;;26.17;19.73;;;;;;;5.69;92.40;96384.22;5044860;28;20228;-79
2021/10/09 02:45:01;;;;;;;34.93;19.87;;;;;;;5.66;92.49;96379.28;5052491;28;20533;-78
2021/10/09 02:47:27;;;;;;;31.67;21.33;;;;;;;5.67;92.70;96381.75;5019805;28;20739;-78
2021/10/09 02:49:52;;;;;;;28.97;20.70;;;;;;;5.68;92.34;96387.72;5036132;28;20185;-78
2021/10/09 02:52:17;;;;;;;29.23;20.63;;;;;;;5.57;92.63;96379.88;5036195;28;20174;-77
2021/10/09 02:54:42;;;;;;;29.93;20.53;;;;;;;5.52;92.67;96379.31;5035598;28;20197;-78
2021/10/09 02:57:08;;;;;;;27.60;20.97;;;;;;;5.44;92.63;96378.97;5036185;28;20185;-78
2021/10/09 02:59:33;;;;;;;30.87;22.30;;;;;;;5.40;92.77;96380.91;5052309;28;20664;-77
2021/10/09 03:01:58;;;;;;;29.23;20.47;;;;;;;5.35;92.46;96375.22;5019355;28;20178;-78
2021/10/09 03:04:23;;;;;;;29.10;20.23;;;;;;;5.29;92.37;96381.56;5018740;28;20182;-77
2021/10/09 03:06:49;;;;;;;32.67;21.27;;;;;;;5.28;92.97;96379.91;5019479;28;20204;-78
2021/10/09 03:09:14;;;;;;;30.73;21.50;;;;;;;5.22;92.89;96384.63;5034226;28;20201;-78
2021/10/09 03:11:39;;;;;;;29.67;20.47;;;;;;;5.21;93.16;96373.50;5019714;28;20216;-78
2021/10/09 03:14:05;;;;;;;30.03;20.43;;;;;;;5.20;92.99;96369.25;5051895;28;20228;-77
2021/10/09 03:16:30;;;;;;;30.43;21.40;;;;;;;5.20;93.17;96363.28;5019369;28;20288;-77
2021/10/09 03:18:55;;;;;;;32.10;20.43;;;;;;;5.20;93.01;96366.69;5019256;28;20352;-77
2021/10/09 03:21:21;;;;;;;30.67;20.90;;;;;;;5.20;92.93;96366.69;5019297;28;20228;-78
2021/10/09 03:23:46;;;;;;;31.80;20.70;;;;;;;5.16;93.19;96366.97;5035099;28;20665;-76
2021/10/09 03:26:11;;;;;;;29.53;20.20;;;;;;;5.14;93.10;96367.06;5035538;28;20711;-78
2021/10/09 03:28:36;;;;;;;32.83;21.13;;;;;;;5.13;93.02;96380.88;5018991;28;20229;-78
2021/10/09 03:31:02;;;;;;;27.83;18.90;;;;;;;5.20;93.16;96371.81;5035560;28;20260;-80
2021/10/09 03:33:27;;;;;;;27.93;19.83;;;;;;;5.14;93.11;96374.81;5053263;28;20174;-78
2021/10/09 03:35:52;;;;;;;27.53;18.93;;;;;;;5.18;93.02;96373.69;5035142;28;20201;-76
2021/10/09 03:38:19;;;;;;;27.07;18.40;;;;;;;5.15;92.84;96380.78;5035524;28;20196;-78
2021/10/09 03:40:49;;;;;;;30.00;20.00;;;;;;;5.17;92.94;96386.66;5053581;28;20178;-77
2021/10/09 03:43:18;;;;;;;25.30;18.90;;;;;;;5.14;92.67;96376.56;5019267;28;20189;-77
2021/10/09 03:45:55;;;;;;;27.10;19.27;;;;;;;5.10;92.88;96378.47;5035146;28;20173;-77
2021/10/09 03:48:43;;;;;;;27.20;18.00;;;;;;;5.21;93.07;96377.81;5020254;28;20200;-78
2021/10/09 03:53:34;;;;;;;28.07;17.70;;;;;;;5.25;92.25;96381.84;5034732;28;20166;-77
2021/10/09 03:56:00;;;;;;;25.60;16.93;;;;;;;5.24;92.17;96373.31;5051599;28;20255;-78
2021/10/09 03:58:27;;;;;;;25.27;16.73;;;;;;;5.15;92.23;96384.19;5051620;28;20189;-77
2021/10/09 04:00:52;;;;;;;24.10;17.23;;;;;;;5.16;92.45;96375.53;5051663;28;20174;-78
2021/10/09 04:03:17;;;;;;;21.00;16.60;;;;;;;5.22;92.33;96389.78;5018350;28;20177;-78
2021/10/09 04:05:42;;;;;;;26.07;17.13;;;;;;;5.25;92.40;96385.25;5034526;28;20379;-79
2021/10/09 04:08:08;;;;;;;23.27;17.13;;;;;;;5.25;91.95;96385.25;5033687;28;20201;-79
2021/10/09 04:10:38;;;;;;;24.73;16.40;;;;;;;5.34;91.59;96384.69;5034770;28;20635;-78
2021/10/09 04:13:05;;;;;;;26.83;17.40;;;;;;;5.31;91.32;96390.03;5050804;28;20185;-79
2021/10/09 04:15:31;;;;;;;22.07;16.30;;;;;;;5.25;91.77;96385.25;5017477;28;20672;-79
2021/10/09 04:17:56;;;;;;;25.47;17.23;;;;;;;5.18;91.78;96390.88;5051004;28;20190;-78
2021/10/09 04:20:22;;;;;;;25.17;17.67;;;;;;;5.15;91.94;96388.50;5018322;28;20265;-80
2021/10/09 04:22:48;;;;;;;23.83;16.80;;;;;;;5.16;92.01;96387.56;5018256;28;20723;-79
2021/10/09 04:25:13;;;;;;;23.87;17.10;;;;;;;5.13;91.99;96385.19;5050568;28;20181;-79
2021/10/09 04:27:39;;;;;;;26.47;17.87;;;;;;;5.09;92.19;96387.13;5018140;28;20198;-78
2021/10/09 04:30:05;;;;;;;23.37;16.50;;;;;;;5.13;91.90;96393.75;5017934;28;20671;-79
2021/10/09 04:32:31;;;;;;;22.50;16.47;;;;;;;5.05;91.79;96388.25;5051246;28;20188;-80
2021/10/09 04:34:56;;;;;;;25.33;17.00;;;;;;;4.97;92.08;96390.44;5050367;28;20198;-79
2021/10/09 04:37:22;;;;;;;26.10;17.23;;;;;;;4.91;92.12;96385.66;5051141;28;20193;-80
2021/10/09 04:39:47;;;;;;;24.97;17.50;;;;;;;4.97;91.91;96388.69;5017798;28;20650;-79
2021/10/09 04:42:12;;;;;;;23.90;17.80;;;;;;;4.91;91.88;96388.22;5050891;28;20182;-78
2021/10/09 04:44:37;;;;;;;28.70;18.10;;;;;;;4.90;92.03;96394.31;5033814;28;20551;-79
2021/10/09 04:47:03;;;;;;;26.10;16.97;;;;;;;4.92;92.09;96389.88;5034097;28;20192;-79
2021/10/09 04:49:28;;;;;;;26.37;16.73;;;;;;;4.86;92.03;96392.81;5050852;28;20177;-78
2021/10/09 04:51:54;;;;;;;22.27;16.97;;;;;;;4.81;92.23;96391.34;5050840;28;20177;-80
2021/10/09 04:54:19;;;;;;;28.67;17.73;;;;;;;4.82;92.25;96389.63;5051217;28;20187;-80
2021/10/09 04:56:44;;;;;;;25.43;17.20;;;;;;;4.78;92.42;96380.44;5017578;28;20276;-80
2021/10/09 04:59:10;;;;;;;31.57;18.70;;;;;;;4.76;92.52;96392.53;5050548;28;20206;-79
2021/10/09 05:01:35;;;;;;;28.07;17.50;;;;;;;4.74;92.68;96390.06;5017145;28;20201;-78
2021/10/09 05:04:00;;;;;;;26.00;18.30;;;;;;;4.78;92.62;96396.69;5033410;28;20583;-79
2021/10/09 05:06:25;;;;;;;25.97;18.57;;;;;;;4.77;92.36;96395.06;5034024;28;20173;-78
2021/10/09 05:08:51;;;;;;;26.47;17.60;;;;;;;4.76;92.47;96392.53;5015756;28;20247;-78
2021/10/09 05:11:17;;;;;;;28.23;18.40;;;;;;;4.78;92.46;96394.13;5033707;28;20190;-80
2021/10/09 05:13:43;;;;;;;28.43;18.13;;;;;;;4.81;92.21;96383.63;5016711;28;20198;-80
2021/10/09 05:16:08;;;;;;;21.27;17.47;;;;;;;4.87;92.21;96385.03;5017433;28;20681;-80
2021/10/09 05:18:33;;;;;;;24.93;17.33;;;;;;;4.79;91.96;96388.06;5050381;28;20715;-79
2021/10/09 05:20:59;;;;;;;26.83;19.17;;;;;;;4.75;92.43;96396.88;5051777;28;20174;-79
2021/10/09 05:23:24;;;;;;;28.20;18.67;;;;;;;4.75;92.44;96390.88;5017057;28;20234;-78
2021/10/09 05:25:50;;;;;;;25.17;18.07;;;;;;;4.69;92.54;96397.25;5051090;28;20178;-78
2021/10/09 05:28:18;;;;;;;26.97;18.23;;;;;;;4.72;92.58;96398.81;5033540;28;20197;-80
2021/10/09 05:30:47;;;;;;;24.43;18.03;;;;;;;4.69;92.48;96399.00;5034187;28;20562;-78
2021/10/09 05:33:23;;;;;;;28.13;19.23;;;;;;;4.67;92.73;96391.34;5034390;28;20182;-80
2021/10/09 05:35:48;;;;;;;25.03;17.57;;;;;;;4.65;92.55;96392.34;5034295;28;20212;-81
2021/10/09 05:38:14;;;;;;;25.00;18.40;;;;;;;4.65;92.64;96402.66;5033518;28;20213;-79
2021/10/09 05:40:40;;;;;;;29.27;20.07;;;;;;;4.58;92.03;96403.94;5051380;28;20264;-80
2021/10/09 05:43:05;;;;;;;26.60;18.93;;;;;;;4.57;92.48;96402.28;5033266;28;20280;-80
2021/10/09 05:45:30;;;;;;;24.90;18.47;;;;;;;4.57;92.40;96402.28;5049719;28;20304;-78
2021/10/09 05:47:56;;;;;;;26.60;19.20;;;;;;;4.55;92.60;96410.91;5016763;28;20228;-78
2021/10/09 05:50:27;;;;;;;27.97;18.53;;;;;;;4.55;92.19;96408.34;5017063;28;20231;-79
2021/10/09 05:53:12;;;;;;;27.57;18.60;;;;;;;4.54;92.34;96409.25;5017684;28;20178;-79
2021/10/09 05:56:04;;;;;;;28.57;19.83;;;;;;;4.58;92.14;96416.78;5019251;28;20206;-80
2021/10/09 06:25:46;;;;;;;27.43;18.60;;;;;;;5.32;91.12;96435.47;5046820;28;20407;-78
2021/10/09 07:00:19;;;;;;;27.17;19.80;;;;;;;6.15;89.75;96456.09;5022056;28;20190;-80
2021/10/09 07:02:44;;;;;;;25.30;18.30;;;;;;;6.11;89.39;96457.22;5052301;28;20174;-76
2021/10/09 07:05:11;;;;;;;26.40;18.67;;;;;;;6.24;89.37;96458.06;5034827;28;20587;-78
2021/10/09 07:07:46;;;;;;;31.33;18.97;;;;;;;6.26;89.03;96458.78;5052005;28;20208;-79
2021/10/09 07:10:11;;;;;;;27.83;18.67;;;;;;;6.39;89.51;96462.25;5052101;28;20197;-77
2021/10/09 07:12:37;;;;;;;26.30;18.67;;;;;;;6.46;89.02;96462.69;5035078;28;20595;-75
2021/10/09 07:15:04;;;;;;;29.37;18.83;;;;;;;6.46;88.93;96460.09;5034430;28;20571;-80
2021/10/09 07:17:30;;;;;;;24.20;18.53;;;;;;;6.57;88.89;96457.63;5052066;28;20193;-77
2021/10/09 07:19:55;;;;;;;30.40;19.73;;;;;;;6.56;88.41;96462.91;5052831;28;20239;-77
2021/10/09 07:22:20;;;;;;;26.37;18.80;;;;;;;6.63;89.04;96470.16;5035148;28;20236;-78
2021/10/09 07:24:45;;;;;;;27.00;17.97;;;;;;;6.75;88.75;96473.66;5051557;28;20166;-79
2021/10/09 07:27:11;;;;;;;32.47;19.80;;;;;;;6.82;88.47;96480.91;5054965;28;20209;-76
2021/10/09 07:29:36;;;;;;;27.83;18.33;;;;;;;6.91;88.02;96463.16;5056142;28;20174;-78
2021/10/09 07:32:01;;;;;;;32.43;18.47;;;;;;;6.93;87.76;96474.19;5039768;28;20251;-78
2021/10/09 07:34:27;;;;;;;24.73;17.87;;;;;;;6.97;87.66;96481.63;5038834;28;20643;-77
2021/10/09 07:36:52;;;;;;;28.10;18.43;;;;;;;7.08;87.50;96479.16;5026214;28;20198;-77
2021/10/09 07:39:17;;;;;;;22.27;18.30;;;;;;;7.12;87.42;96489.28;5015916;28;20357;-76
2021/10/09 07:41:43;;;;;;;25.20;18.23;;;;;;;7.14;87.43;96487.41;5014160;28;20191;-75
2021/10/09 07:44:08;;;;;;;25.93;18.57;;;;;;;7.16;87.36;96483.81;5013575;28;20245;-76
2021/10/09 07:46:33;;;;;;;30.90;18.50;;;;;;;7.29;87.02;96484.63;5031892;28;20170;-76
2021/10/09 07:48:59;;;;;;;27.90;18.40;;;;;;;7.29;86.92;96488.97;5030386;28;20214;-76
2021/10/09 07:51:24;;;;;;;29.80;19.13;;;;;;;7.30;86.46;96482.88;5031129;28;20225;-77
2021/10/09 07:53:49;;;;;;;26.97;18.70;;;;;;;7.43;86.33;96488.03;5030542;28;20273;-79
2021/10/09 07:56:15;;;;;;;27.03;18.10;;;;;;;7.54;85.41;96481.19;5029625;28;20211;-77
2021/10/09 07:58:40;;;;;;;29.63;18.60;;;;;;;7.66;85.66;96476.91;5015054;28;20248;-79
2021/10/09 08:01:05;;;;;;;27.23;19.23;;;;;;;7.63;85.80;96485.72;5031486;28;20206;-79
2021/10/09 08:03:31;;;;;;;27.20;19.03;;;;;;;7.75;85.38;96481.44;5014242;28;20186;-80
2021/10/09 08:05:56;;;;;;;28.43;19.10;;;;;;;7.82;85.32;96474.09;5031933;28;20240;-77
2021/10/09 08:08:22;;;;;;;25.37;18.20;;;;;;;7.92;84.75;96485.44;5031995;28;20194;-79
2021/10/09 08:10:48;;;;;;;27.60;18.70;;;;;;;7.99;84.84;96484.06;5015643;28;20269;-78
2021/10/09 08:13:17;;;;;;;28.70;19.23;;;;;;;7.90;84.30;96484.72;5033143;28;20258;-82
2021/10/09 08:15:43;;;;;;;23.63;18.77;;;;;;;8.01;84.41;96477.03;5031894;28;20614;-78
2021/10/09 08:18:09;;;;;;;28.87;19.70;;;;;;;8.07;84.57;96475.78;5032315;28;20194;-79
2021/10/09 08:20:34;;;;;;;28.07;19.23;;;;;;;8.15;84.47;96484.63;5034762;28;20535;-80
2021/10/09 08:23:03;;;;;;;27.00;19.47;;;;;;;8.30;83.89;96492.22;5016789;28;20174;-80
2021/10/09 08:36:31;;;;;;;28.87;19.87;;;;;;;8.57;83.04;96489.41;4996609;28;20234;-80
2021/10/09 08:38:56;;;;;;;25.60;18.23;;;;;;;8.64;82.80;96488.84;5009340;28;20213;-81
2021/10/09 08:41:21;;;;;;;28.53;18.33;;;;;;;8.73;82.60;96493.34;5010838;28;20265;-80
2021/10/09 08:43:48;;;;;;;25.90;18.83;;;;;;;8.73;82.76;96493.34;5010028;28;20245;-80
2021/10/09 08:46:14;;;;;;;32.03;19.90;;;;;;;8.78;82.86;96493.03;4994782;28;20187;-82
2021/10/09 08:48:50;;;;;;;27.47;19.17;;;;;;;8.78;82.60;96493.03;4994254;28;20199;-85
2021/10/09 08:51:33;;;;;;;26.37;19.43;;;;;;;8.99;82.80;96496.59;4994382;28;20169;-80
2021/10/09 08:54:07;;;;;;;33.50;19.83;;;;;;;9.09;81.62;96496.75;4992082;28;20206;-81
2021/10/09 08:56:34;;;;;;;28.83;19.27;;;;;;;9.11;80.92;96504.44;4992713;28;20217;-80
2021/10/09 08:59:29;;;;;;;27.87;18.83;;;;;;;9.00;80.86;96502.63;5008392;28;20718;-80
2021/10/09 09:02:10;;;;;;;28.63;19.03;;;;;;;9.22;81.42;96507.03;4996075;28;20619;-80
2021/10/09 09:04:45;;;;;;;26.30;19.90;;;;;;;9.35;80.41;96503.38;5012530;28;20191;-80
2021/10/09 09:32:04;;;;;;;29.73;18.87;;;;;;;9.54;76.60;96510.59;5032266;28;20236;-79
2021/10/09 09:34:48;;;;;;;26.50;17.63;;;;;;;9.59;76.94;96499.84;5030897;28;20175;-80
2021/10/09 09:40:16;;;;;;;23.63;18.33;;;;;;;9.65;76.07;96505.41;5030601;28;20182;-80
2021/10/09 09:42:43;;;;;;;24.27;16.90;;;;;;;9.88;76.51;96507.97;5030325;28;20197;-79
2021/10/09 09:45:13;;;;;;;27.60;18.17;;;;;;;9.69;76.66;96511.16;5029624;28;20170;-80
2021/10/09 09:47:40;;;;;;;26.13;17.83;;;;;;;9.89;76.27;96507.00;5030309;28;20226;-80
2021/10/09 09:50:08;;;;;;;25.47;17.20;;;;;;;10.04;75.16;96511.00;5013921;28;20174;-79
2021/10/09 09:52:44;;;;;;;24.27;17.07;;;;;;;9.98;74.16;96506.28;5013585;28;20214;-83
2021/10/09 09:55:14;;;;;;;21.90;17.50;;;;;;;10.12;73.69;96502.63;5028169;28;20203;-80
2021/10/09 09:57:40;;;;;;;20.13;16.60;;;;;;;10.29;74.55;96499.53;5022341;28;20210;-78
2021/10/09 10:00:10;;;;;;;25.87;16.93;;;;;;;10.23;73.79;96504.41;5026193;28;20240;-80
2021/10/09 10:02:43;;;;;;;24.87;17.43;;;;;;;10.17;74.81;96511.72;5006736;28;20194;-80
2021/10/09 10:05:09;;;;;;;28.33;17.30;;;;;;;10.31;74.35;96502.00;5008087;28;20208;-80
2021/10/09 10:07:35;;;;;;;22.67;16.27;;;;;;;10.48;73.75;96504.91;5009947;28;20290;-80
2021/10/09 10:10:00;;;;;;;25.40;16.77;;;;;;;10.54;73.12;96507.97;5027322;28;20194;-79
2021/10/09 10:12:26;;;;;;;24.63;16.67;;;;;;;10.50;71.39;96507.38;5030837;28;20205;-79
2021/10/09 10:14:51;;;;;;;19.40;15.67;;;;;;;10.57;71.10;96510.31;5013850;28;20259;-77
2021/10/09 10:17:38;;;;;;;22.47;15.13;;;;;;;10.55;71.30;96502.66;5031805;28;20205;-78
2021/10/09 10:20:06;;;;;;;24.17;16.73;;;;;;;10.63;71.57;96507.22;5033210;28;20178;-81
2021/10/09 10:22:34;;;;;;;24.20;16.07;;;;;;;10.67;71.16;96506.84;5032309;28;20279;-81
2021/10/09 10:25:00;;;;;;;22.77;17.40;;;;;;;10.67;71.07;96517.22;5033299;28;20543;-82
2021/10/09 10:27:34;;;;;;;22.77;15.53;;;;;;;10.84;71.73;96520.22;5049287;28;20213;-81
2021/10/09 10:30:14;;;;;;;22.17;16.63;;;;;;;10.89;71.56;96518.09;5032561;28;20167;-81
2021/10/09 10:32:55;;;;;;;21.53;15.83;;;;;;;10.92;70.64;96518.66;5033756;28;20228;-81
2021/10/09 10:35:29;;;;;;;20.00;15.53;;;;;;;10.90;71.13;96517.13;5033078;28;20209;-82
2021/10/09 10:37:58;;;;;;;18.83;15.00;;;;;;;11.03;68.64;96518.59;5032605;28;20581;-80
2021/10/09 10:41:01;;;;;;;19.20;14.83;;;;;;;11.04;69.11;96517.66;5032386;28;20218;-78
2021/10/09 10:46:04;;;;;;;19.53;14.70;;;;;;;11.09;67.87;96517.25;4992862;28;20180;-78
2021/10/09 10:56:55;;;;;;;20.70;14.07;;;;;;;11.35;67.01;96518.53;4992907;28;20218;-81
2021/10/09 10:59:44;;;;;;;20.63;12.83;;;;;;;11.31;67.55;96518.91;4975902;28;20188;-81
2021/10/09 11:02:14;;;;;;;21.33;13.87;;;;;;;11.45;66.76;96515.16;4975186;28;20187;-80
2021/10/09 11:04:48;;;;;;;19.57;14.20;;;;;;;11.39;64.71;96515.66;4991288;28;20188;-81
2021/10/09 11:07:14;;;;;;;18.57;13.40;;;;;;;11.59;64.97;96520.00;4975696;28;20677;-81
2021/10/09 11:09:40;;;;;;;17.50;13.13;;;;;;;11.61;64.62;96531.09;4991842;28;20188;-81
2021/10/09 11:12:33;;;;;;;20.07;14.07;;;;;;;11.50;64.17;96516.41;4976284;28;20664;-81
2021/10/09 11:15:17;;;;;;;19.23;14.33;;;;;;;11.63;63.98;96519.59;4956382;28;20254;-80
2021/10/09 11:18:06;;;;;;;20.33;14.47;;;;;;;11.71;63.66;96515.53;4991423;28;20279;-82
2021/10/09 11:20:38;;;;;;;18.10;13.40;;;;;;;11.62;64.88;96517.97;5025301;28;20693;-82
2021/10/09 11:23:05;;;;;;;19.17;13.23;;;;;;;11.76;64.41;96516.81;5024019;28;20224;-85
2021/10/09 11:25:32;;;;;;;18.63;14.40;;;;;;;11.69;62.71;96509.66;5022949;28;20174;-83
2021/10/09 11:28:00;;;;;;;20.37;13.70;;;;;;;11.72;63.17;96511.97;5063018;28;20198;-86
2021/10/09 11:30:26;;;;;;;17.57;14.40;;;;;;;11.85;64.07;96512.63;5035850;28;20185;-81
2021/10/09 11:32:54;;;;;;;18.27;14.00;;;;;;;11.90;64.53;96513.84;5052327;28;20174;-81
2021/10/09 11:35:37;;;;;;;20.93;13.43;;;;;;;11.94;64.33;96511.81;5052490;28;20284;-80
2021/10/09 11:38:05;;;;;;;18.90;13.73;;;;;;;12.00;65.31;96506.06;5036274;28;20205;-82
2021/10/09 11:40:33;;;;;;;17.53;14.17;;;;;;;12.16;65.90;96513.38;5060261;28;20181;-79
2021/10/09 11:43:10;;;;;;;16.93;13.67;;;;;;;12.27;64.97;96508.06;5061121;28;20225;-83
2021/10/09 11:46:27;;;;;;;19.80;14.67;;;;;;;12.27;64.86;96507.22;5040097;28;20204;-81
2021/10/09 11:54:23;;;;;;;17.00;13.93;;;;;;;12.39;64.58;96506.16;5052048;28;20244;-79
2021/10/09 11:56:49;;;;;;;20.50;13.13;;;;;;;12.43;64.35;96497.94;5026489;28;20197;-79
2021/10/09 11:59:14;;;;;;;16.83;13.83;;;;;;;12.47;64.26;96504.53;5057484;28;20209;-78
2021/10/09 12:01:51;;;;;;;23.00;14.83;;;;;;;12.49;63.82;96504.38;5036156;28;20205;-78
2021/10/09 12:04:21;;;;;;;20.67;13.83;;;;;;;12.48;63.48;96497.53;5051445;28;20205;-77
2021/10/09 12:06:57;;;;;;;24.17;14.80;;;;;;;12.24;63.73;96503.13;5019074;28;20175;-77
2021/10/09 12:09:39;;;;;;;19.70;13.40;;;;;;;12.43;63.66;96497.09;5052266;28;20181;-78
2021/10/09 12:12:10;;;;;;;16.67;13.33;;;;;;;12.39;64.17;96506.16;5052908;28;20248;-77
2021/10/09 12:14:35;;;;;;;23.10;14.67;;;;;;;12.47;63.34;96501.94;5036688;28;20427;-77
2021/10/09 12:17:01;;;;;;;19.60;14.33;;;;;;;12.56;62.86;96510.72;5036120;28;20179;-77
2021/10/09 12:19:28;;;;;;;19.30;14.07;;;;;;;12.47;62.56;96504.53;5053152;28;20222;-78
2021/10/09 12:21:53;;;;;;;21.40;13.57;;;;;;;12.60;63.45;96512.06;5036135;28;20269;-78
2021/10/09 12:24:24;;;;;;;20.63;13.40;;;;;;;12.58;63.82;96510.56;5054027;28;20224;-79
2021/10/09 12:27:04;;;;;;;14.53;12.53;;;;;;;12.80;62.71;96502.47;5021704;28;20171;-78
2021/10/09 12:29:35;;;;;;;17.90;13.40;;;;;;;12.86;61.10;96504.53;5040000;28;20253;-79
2021/10/09 12:32:19;;;;;;;18.57;13.17;;;;;;;12.91;62.06;96498.91;5037312;28;20217;-79
2021/10/09 12:34:45;;;;;;;16.17;12.80;;;;;;;12.93;59.09;96499.59;5037807;28;20186;-78
2021/10/09 12:37:19;;;;;;;17.97;12.10;;;;;;;12.99;60.22;96497.25;5054480;28;20175;-78
2021/10/09 12:39:47;;;;;;;18.53;11.97;;;;;;;12.80;60.81;96489.44;5039134;28;20178;-78
2021/10/09 12:42:14;;;;;;;20.20;12.37;;;;;;;12.89;60.47;96487.78;5037285;28;20183;-78
2021/10/09 12:44:40;;;;;;;15.97;13.27;;;;;;;12.83;58.41;96490.97;5036327;28;20232;-79
2021/10/09 12:47:05;;;;;;;16.17;12.57;;;;;;;12.71;59.42;96495.47;5036921;28;20202;-79
2021/10/09 12:49:30;;;;;;;19.37;12.30;;;;;;;12.66;60.07;96492.47;5054562;28;20174;-78
2021/10/09 12:51:56;;;;;;;20.50;13.13;;;;;;;12.68;58.78;96490.53;5020744;28;20174;-77
2021/10/09 12:54:21;;;;;;;16.23;12.07;;;;;;;12.80;59.79;96489.44;5036486;28;20228;-78
2021/10/09 12:56:49;;;;;;;18.00;11.73;;;;;;;13.02;60.76;96486.53;5054123;28;20199;-78
2021/10/09 12:59:14;;;;;;;15.03;11.30;;;;;;;13.04;60.23;96481.19;5053874;28;20202;-79
2021/10/09 13:01:40;;;;;;;14.80;11.57;;;;;;;12.92;58.51;96487.53;5036738;28;20186;-79
2021/10/09 13:04:05;;;;;;;15.17;11.00;;;;;;;12.86;58.77;96488.06;5053560;28;20642;-78
2021/10/09 13:06:30;;;;;;;13.70;11.83;;;;;;;12.96;57.85;96473.22;5054140;28;20174;-79
2021/10/09 13:08:56;;;;;;;16.20;10.83;;;;;;;13.03;58.46;96482.97;5037121;28;20202;-78
2021/10/09 13:11:37;;;;;;;18.90;11.83;;;;;;;12.94;58.55;96480.38;5020700;28;20261;-78
2021/10/09 13:14:02;;;;;;;18.23;10.43;;;;;;;13.05;58.56;96472.38;5022379;28;20542;-78
2021/10/09 13:16:27;;;;;;;15.63;11.30;;;;;;;13.08;57.64;96474.72;5053718;28;20212;-78
2021/10/09 13:18:53;;;;;;;15.67;10.73;;;;;;;13.09;56.13;96475.56;5053890;28;20190;-79
2021/10/09 13:21:19;;;;;;;15.13;11.13;;;;;;;13.22;57.83;96469.09;5053320;28;20202;-79
2021/10/09 13:23:45;;;;;;;16.03;11.47;;;;;;;13.23;57.72;96475.94;5035962;28;20695;-79
2021/10/09 13:26:10;;;;;;;15.03;9.97;;;;;;;13.18;58.20;96470.31;5036779;28;20171;-79
2021/10/09 13:28:40;;;;;;;16.47;11.50;;;;;;;13.16;57.12;96485.25;5052905;28;20205;-79
2021/10/09 13:31:05;;;;;;;15.73;10.87;;;;;;;13.26;56.65;96475.69;5052930;28;20186;-79